Time;durP1;ratioP1;P1;durP2;ratioP2;P2;SDS_P1;SDS_P2;PMS_P1;PMS_P2;Temp;Humidity;BMP_temperature;BMP_pressure;BME280_temperature;BME280_humidity;BME280_pressure;Samples;Min_cycle;Max_cycle;Signal;HPM_P1;HPM_P2
2023/07/19 00:09:43;;;;;;;28.95;20.45;;;18.60;99.90;;;;;;25596076;23;20001;-55
2023/07/19 00:19:45;;;;;;;22.17;16.98;;;18.70;99.90;;;;;;25595576;23;20083;-56
2023/07/19 00:29:46;;;;;;;23.50;17.27;;;18.60;99.90;;;;;;25595340;23;20009;-52
2023/07/19 00:39:48;;;;;;;26.45;19.25;;;18.80;99.90;;;;;;25594649;23;20036;-55
2023/07/19 00:49:50;;;;;;;25.73;19.38;;;19.20;99.90;;;;;;25594706;23;20013;-56
2023/07/19 00:59:52;;;;;;;19.98;14.98;;;19.70;99.90;;;;;;25594086;23;20384;-55
2023/07/19 01:09:54;;;;;;;22.60;14.45;;;19.60;99.90;;;;;;25593996;23;20031;-49
2023/07/19 01:19:55;;;;;;;22.35;14.65;;;19.10;99.90;;;;;;25593677;23;20064;-50
2023/07/19 01:29:57;;;;;;;10.27;4.63;;;18.50;99.90;;;;;;25591502;23;20052;-56
2023/07/19 01:40:01;;;;;;;17.88;9.35;;;18.30;99.90;;;;;;25592761;23;20048;-55
2023/07/19 01:50:03;;;;;;;14.82;7.97;;;19.60;99.90;;;;;;25592396;23;20013;-56
2023/07/19 02:00:06;;;;;;;13.48;7.97;;;19.90;99.90;;;;;;25591937;23;20016;-56
2023/07/19 02:10:18;;;;;;;12.73;8.18;;;19.50;99.90;;;;;;25632129;23;20005;-55
2023/07/19 02:20:22;;;;;;;13.57;7.60;;;18.80;99.90;;;;;;25590969;23;20005;-55
2023/07/19 02:30:23;;;;;;;11.32;6.82;;;18.40;99.90;;;;;;25590594;23;20507;-55
2023/07/19 02:40:25;;;;;;;12.60;7.13;;;18.40;99.90;;;;;;25590276;23;20503;-50
2023/07/19 02:50:27;;;;;;;12.25;8.15;;;19.60;99.90;;;;;;25589861;23;20101;-56
2023/07/19 03:00:28;;;;;;;13.05;8.30;;;19.40;99.90;;;;;;25589801;23;20013;-56
2023/07/19 03:10:30;;;;;;;11.73;8.38;;;19.20;99.90;;;;;;25589246;23;20001;-55
2023/07/19 03:20:32;;;;;;;12.82;9.00;;;18.90;99.90;;;;;;25586002;23;20009;-54
2023/07/19 03:30:35;;;;;;;13.48;10.43;;;18.70;99.90;;;;;;25587103;23;20429;-55
2023/07/19 03:40:37;;;;;;;16.77;11.05;;;18.50;99.90;;;;;;25586871;23;20064;-56
2023/07/19 03:50:38;;;;;;;18.13;10.45;;;18.40;99.90;;;;;;25588596;23;20013;-54
2023/07/19 04:00:40;;;;;;;14.35;8.32;;;18.50;99.90;;;;;;25586598;23;20056;-55
2023/07/19 04:10:43;;;;;;;14.35;11.05;;;20.00;99.90;;;;;;25586480;23;20001;-56
2023/07/19 04:20:45;;;;;;;16.55;9.98;;;19.80;99.90;;;;;;25586324;23;20001;-54
2023/07/19 04:30:47;;;;;;;18.73;12.50;;;19.20;99.90;;;;;;25591218;23;20051;-56
2023/07/19 04:40:49;;;;;;;20.50;12.68;;;19.00;99.90;;;;;;25592956;23;20012;-56
2023/07/19 04:50:58;;;;;;;19.50;11.07;;;19.10;99.90;;;;;;25592872;23;20021;-54
2023/07/19 05:01:08;;;;;;;17.27;10.98;;;19.40;99.90;;;;;;25633654;23;20039;-54
2023/07/19 05:11:11;;;;;;;17.60;11.23;;;19.80;99.90;;;;;;25635021;23;20013;-54
2023/07/19 05:21:13;;;;;;;14.27;10.40;;;19.60;99.90;;;;;;25591976;23;20005;-56
2023/07/19 05:31:16;;;;;;;15.65;10.57;;;19.50;99.90;;;;;;25591004;23;20009;-56
2023/07/19 05:41:18;;;;;;;13.18;9.70;;;19.50;99.90;;;;;;25592014;23;20020;-56
2023/07/19 05:51:19;;;;;;;12.57;9.27;;;19.80;99.90;;;;;;25589796;23;20009;-56
2023/07/19 06:01:21;;;;;;;13.05;10.88;;;20.60;99.90;;;;;;25591658;23;20013;-57
2023/07/19 06:11:23;;;;;;;18.10;10.82;;;21.20;99.90;;;;;;25588945;23;20016;-56
2023/07/19 06:21:24;;;;;;;17.35;10.90;;;21.60;99.90;;;;;;25590566;23;20012;-56
2023/07/19 06:31:26;;;;;;;17.10;10.63;;;22.10;99.90;;;;;;25587122;23;20001;-57
2023/07/19 06:41:28;;;;;;;19.90;9.38;;;24.90;99.90;;;;;;25590114;23;20013;-57
2023/07/19 06:51:29;;;;;;;11.07;7.65;;;27.00;99.90;;;;;;25588176;23;20398;-57
2023/07/19 07:01:31;;;;;;;9.55;6.93;;;28.00;99.90;;;;;;25589643;23;20085;-49
2023/07/19 07:11:32;;;;;;;9.10;7.00;;;29.20;99.90;;;;;;25589396;23;20005;-58
2023/07/19 07:21:34;;;;;;;9.95;8.10;;;30.20;99.90;;;;;;25589241;23;20008;-58
2023/07/19 07:31:35;;;;;;;14.90;9.20;;;30.40;97.60;;;;;;25587728;23;20009;-57
2023/07/19 07:41:37;;;;;;;12.85;9.23;;;30.50;96.80;;;;;;25587109;23;20005;-58
2023/07/19 07:51:38;;;;;;;10.27;8.38;;;30.60;97.90;;;;;;25588591;23;20024;-58
2023/07/19 08:01:41;;;;;;;15.75;10.98;;;30.70;97.70;;;;;;25587729;23;20001;-58
2023/07/19 08:11:43;;;;;;;13.95;9.57;;;29.50;97.70;;;;;;25595283;23;20005;-58
2023/07/19 08:21:44;;;;;;;10.80;7.55;;;30.00;97.30;;;;;;25594657;23;20498;-58
2023/07/19 08:31:46;;;;;;;14.80;8.43;;;30.00;99.20;;;;;;25592924;23;20005;-57
2023/07/19 08:41:48;;;;;;;11.18;8.10;;;29.50;99.20;;;;;;25594358;23;20036;-57
2023/07/19 08:51:50;;;;;;;12.45;8.18;;;28.70;99.90;;;;;;25593549;23;20076;-58
2023/07/19 09:01:52;;;;;;;11.13;8.48;;;29.10;99.90;;;;;;25592368;23;20063;-57
2023/07/19 09:11:53;;;;;;;13.38;9.75;;;29.50;99.40;;;;;;25592690;23;20055;-58
2023/07/19 09:21:57;;;;;;;10.13;7.93;;;29.90;99.30;;;;;;25592805;23;20017;-58
2023/07/19 09:32:01;;;;;;;10.57;8.25;;;30.70;98.80;;;;;;25592478;23;20024;-58
2023/07/19 09:42:03;;;;;;;12.32;7.40;;;30.50;97.80;;;;;;25590546;23;20396;-57
2023/07/19 09:52:06;;;;;;;12.07;9.52;;;30.80;97.70;;;;;;25591181;23;20012;-58
2023/07/19 10:02:08;;;;;;;15.50;10.30;;;31.00;97.20;;;;;;25588357;23;20005;-57
2023/07/19 10:12:19;;;;;;;11.65;8.80;;;31.00;97.10;;;;;;25590660;23;20012;-58
2023/07/19 10:22:20;;;;;;;12.68;8.32;;;31.20;96.60;;;;;;25590632;23;20009;-58
2023/07/19 10:32:22;;;;;;;11.63;8.63;;;31.20;98.20;;;;;;25590182;23;20013;-58
2023/07/19 10:42:23;;;;;;;14.68;10.75;;;31.40;97.70;;;;;;25589811;23;20020;-50
2023/07/19 10:52:25;;;;;;;13.07;10.88;;;31.30;97.10;;;;;;25590058;23;20318;-58
2023/07/19 11:02:27;;;;;;;13.00;8.57;;;31.50;97.20;;;;;;25590015;23;20085;-58
2023/07/19 11:12:33;;;;;;;14.05;10.23;;;32.60;97.70;;;;;;25589292;23;20036;-58
2023/07/19 11:22:34;;;;;;;13.55;10.80;;;32.20;95.50;;;;;;25589063;23;20012;-47
2023/07/19 11:32:36;;;;;;;13.68;9.93;;;31.60;95.30;;;;;;25588610;23;20008;-58
2023/07/19 11:42:44;;;;;;;15.10;11.77;;;31.60;97.40;;;;;;25594024;23;20013;-58
2023/07/19 11:52:54;;;;;;;14.32;11.35;;;32.10;95.60;;;;;;25637644;23;20020;-58
2023/07/19 12:02:56;;;;;;;19.48;14.35;;;32.60;96.00;;;;;;25636624;23;20005;-58
2023/07/19 12:12:58;;;;;;;21.45;12.52;;;32.20;95.20;;;;;;25595857;23;20020;-57
2023/07/19 12:22:59;;;;;;;15.07;12.45;;;31.50;96.70;;;;;;25595677;23;20047;-57
2023/07/19 12:33:02;;;;;;;16.67;13.75;;;30.60;97.90;;;;;;25595304;23;20085;-58
2023/07/19 12:43:03;;;;;;;14.35;12.07;;;29.70;98.60;;;;;;25594423;23;20012;-57
2023/07/19 12:53:05;;;;;;;18.50;13.82;;;28.70;99.80;;;;;;25594383;23;20383;-57
2023/07/19 13:03:09;;;;;;;23.02;14.65;;;28.10;99.90;;;;;;25592623;23;20001;-58
2023/07/19 13:13:10;;;;;;;19.10;13.45;;;27.70;99.90;;;;;;25593631;23;20009;-57
2023/07/19 13:23:16;;;;;;;14.90;11.65;;;27.50;99.90;;;;;;25593232;23;20009;-58
2023/07/19 13:33:18;;;;;;;19.48;13.10;;;28.00;99.90;;;;;;25592569;23;20001;-57
2023/07/19 13:43:20;;;;;;;22.02;13.38;;;28.50;99.90;;;;;;25590142;23;20439;-57
2023/07/19 13:53:22;;;;;;;17.38;13.40;;;28.90;99.90;;;;;;25591358;23;20009;-58
2023/07/19 14:03:23;;;;;;;16.17;12.02;;;30.50;98.10;;;;;;25590172;23;20016;-62
2023/07/19 14:13:26;;;;;;;18.67;13.13;;;31.20;97.80;;;;;;25591329;23;20032;-58
2023/07/19 14:23:28;;;;;;;20.30;13.88;;;31.10;97.30;;;;;;25591047;23;20336;-58
2023/07/19 14:33:30;;;;;;;18.70;14.82;;;29.60;98.30;;;;;;25590534;23;20016;-58
2023/07/19 14:43:31;;;;;;;23.70;17.30;;;28.50;99.90;;;;;;25589880;23;20032;-58
2023/07/19 14:53:33;;;;;;;23.88;14.73;;;27.50;99.90;;;;;;25589110;23;20068;-58
2023/07/19 15:03:35;;;;;;;20.15;13.88;;;27.40;99.90;;;;;;25585521;23;20008;-54
2023/07/19 15:13:37;;;;;;;15.43;13.00;;;29.10;99.90;;;;;;25588555;23;20051;-57
2023/07/19 15:23:39;;;;;;;18.25;14.27;;;29.10;99.90;;;;;;25588355;23;20005;-57
2023/07/19 15:33:42;;;;;;;17.52;12.95;;;29.80;99.30;;;;;;25587779;23;20021;-59
2023/07/19 15:43:45;;;;;;;17.70;14.00;;;29.80;99.40;;;;;;25588031;23;20005;-58
2023/07/19 15:53:47;;;;;;;18.27;14.20;;;29.50;99.10;;;;;;25588033;23;20005;-58
2023/07/19 16:03:48;;;;;;;18.30;11.88;;;29.00;99.20;;;;;;25588533;23;20444;-57
2023/07/19 16:13:51;;;;;;;21.15;12.65;;;28.40;99.90;;;;;;25588127;23;20032;-58
2023/07/19 16:23:53;;;;;;;19.65;13.80;;;27.90;99.90;;;;;;25589431;23;20009;-56
2023/07/19 16:33:55;;;;;;;21.27;16.63;;;26.80;99.90;;;;;;25595176;23;20009;-57
2023/07/19 16:43:56;;;;;;;21.55;14.38;;;26.10;99.90;;;;;;25597803;23;20075;-58
2023/07/19 16:53:58;;;;;;;20.38;16.38;;;25.60;99.90;;;;;;25594734;23;20005;-58
2023/07/19 17:04:00;;;;;;;20.75;14.73;;;24.90;99.90;;;;;;25594446;23;20005;-57
2023/07/19 17:14:01;;;;;;;22.35;16.02;;;24.20;99.90;;;;;;25593973;23;20001;-57
2023/07/19 17:24:03;;;;;;;31.70;18.42;;;23.80;99.90;;;;;;25593383;23;20009;-58
2023/07/19 17:34:04;;;;;;;23.40;17.60;;;23.50;99.90;;;;;;25592386;23;20001;-57
2023/07/19 17:44:07;;;;;;;23.92;17.85;;;23.30;99.90;;;;;;25590726;23;20505;-58
2023/07/19 17:54:08;;;;;;;24.30;18.27;;;23.20;99.90;;;;;;25592404;23;20052;-57
2023/07/19 18:04:10;;;;;;;23.65;18.27;;;23.00;99.90;;;;;;25592452;23;20009;-45
2023/07/19 18:14:12;;;;;;;22.05;18.65;;;22.60;99.90;;;;;;25591709;23;20001;-57
2023/07/19 18:24:17;;;;;;;24.40;18.30;;;22.40;99.90;;;;;;25589807;23;20443;-57
2023/07/19 18:34:22;;;;;;;30.08;20.00;;;22.20;99.90;;;;;;25591011;23;20444;-51
2023/07/19 18:44:26;;;;;;;23.73;19.90;;;21.00;99.90;;;;;;25590284;23;20013;-56
2023/07/19 18:54:27;;;;;;;29.38;19.10;;;20.10;99.90;;;;;;25589734;23;20013;-56
2023/07/19 19:04:29;;;;;;;30.15;20.88;;;19.60;99.90;;;;;;25590230;23;20060;-57
2023/07/19 19:14:31;;;;;;;30.98;22.63;;;19.60;99.90;;;;;;25589545;23;20005;-58
2023/07/19 19:24:33;;;;;;;33.00;25.25;;;19.50;99.90;;;;;;25589226;23;20072;-58
2023/07/19 19:34:36;;;;;;;26.02;21.10;;;19.70;99.90;;;;;;25588254;23;20005;-58
2023/07/19 19:44:38;;;;;;;15.77;12.20;;;19.70;99.90;;;;;;25588160;23;20009;-59
2023/07/19 19:54:40;;;;;;;18.52;14.68;;;19.50;99.90;;;;;;25586403;23;20337;-46
2023/07/19 20:04:41;;;;;;;29.80;22.48;;;18.70;99.90;;;;;;25594652;23;20507;-43
2023/07/19 20:14:43;;;;;;;54.10;36.08;;;18.50;99.90;;;;;;25596142;23;20009;-54
2023/07/19 20:24:46;;;;;;;46.97;32.40;;;18.60;99.90;;;;;;25595519;23;20013;-54
2023/07/19 20:34:50;;;;;;;55.75;36.55;;;18.70;99.90;;;;;;25593088;23;20009;-44
2023/07/19 20:44:55;;;;;;;58.60;39.88;;;18.60;99.90;;;;;;25589828;23;20021;-56
2023/07/19 20:54:57;;;;;;;18.08;11.80;;;18.50;99.90;;;;;;25593738;23;20009;-57
2023/07/19 21:04:59;;;;;;;16.40;12.40;;;18.10;99.90;;;;;;25593420;23;20063;-58
2023/07/19 21:15:01;;;;;;;14.25;9.90;;;17.80;99.90;;;;;;25592900;23;20005;-58
2023/07/19 21:25:03;;;;;;;10.80;7.32;;;17.50;99.90;;;;;;25592516;23;20047;-58
2023/07/19 21:35:05;;;;;;;6.82;4.93;;;17.40;99.90;;;;;;25593640;23;20005;-56
2023/07/19 21:45:07;;;;;;;7.53;4.65;;;17.10;99.90;;;;;;25591822;23;20369;-58
2023/07/19 21:55:10;;;;;;;9.48;3.22;;;17.10;99.90;;;;;;25592895;23;20013;-58
2023/07/19 22:05:11;;;;;;;5.47;2.60;;;17.00;99.90;;;;;;25591407;23;20344;-57
2023/07/19 22:15:16;;;;;;;4.45;2.00;;;17.00;99.90;;;;;;25590554;23;20009;-57
2023/07/19 22:25:18;;;;;;;6.07;2.25;;;17.10;99.90;;;;;;25590179;23;20013;-58
2023/07/19 22:35:19;;;;;;;3.90;2.20;;;17.50;99.90;;;;;;25589903;23;20499;-49
2023/07/19 22:45:21;;;;;;;5.30;1.98;;;18.10;99.90;;;;;;25630673;23;20033;-58
2023/07/19 22:55:23;;;;;;;4.97;1.92;;;17.90;99.90;;;;;;25587425;23;20017;-58
2023/07/19 23:05:25;;;;;;;4.35;1.92;;;17.60;99.90;;;;;;25587746;23;20009;-58
2023/07/19 23:15:27;;;;;;;3.65;2.00;;;17.50;99.90;;;;;;25588459;23;20097;-57
2023/07/19 23:25:30;;;;;;;3.20;2.10;;;17.20;99.90;;;;;;25588242;23;20005;-58
2023/07/19 23:35:32;;;;;;;4.25;2.50;;;17.10;99.90;;;;;;25587842;23;20009;-57
2023/07/19 23:45:34;;;;;;;5.45;1.58;;;17.30;99.90;;;;;;25587769;23;20013;-58
2023/07/19 23:55:35;;;;;;;5.05;1.98;;;17.40;99.90;;;;;;25587532;23;20372;-58
